Terminal Aerodrome Forecast
Issued by NWS

Home | Current Version | Previous Version | Graphics & Text | Print | Product List | Glossary On
Versions: 1 2 3 4 5 6 7 8 9 10 11 12 13 14 15
858
FTUS43 KMPX 251020 AAC
TAFRWF
TAF AMD
KRWF 251020Z 2510/2606 14009KT P6SM -SHRA VCTS SCT060CB BKN090
      TEMPO 2510/2511 6SM TSRA SCT030 OVC060CB
     FM251100 13018KT P6SM SCT040 SCT200
     FM251700 18011KT P6SM SCT050 BKN250
     FM260000 24008KT P6SM SHRA VCTS BKN040CB PROB30 2601/2604 2SM
      TSRA SCT015 BKN040CB=

USA.gov is the U.S. government's official web portal to all federal, state and local government web resources and services.